sensor_id;sensor_type;location;lat;lon;timestamp;pressure;altitude;pressure_sealevel;temperature;humidity
48848;BME280;36611;51.638;5.784;2023-01-16T00:01:22;99524.50;;;9.57;57.50
48848;BME280;36611;51.638;5.784;2023-01-16T00:03:50;99529.13;;;9.55;57.26
48848;BME280;36611;51.638;5.784;2023-01-16T00:06:16;99512.22;;;9.54;57.73
48848;BME280;36611;51.638;5.784;2023-01-16T00:08:43;99502.34;;;9.55;57.78
48848;BME280;36611;51.638;5.784;2023-01-16T00:11:10;99498.53;;;9.57;57.52
48848;BME280;36611;51.638;5.784;2023-01-16T00:13:38;99493.19;;;9.57;57.72
48848;BME280;36611;51.638;5.784;2023-01-16T00:16:05;99495.16;;;9.55;57.67
48848;BME280;36611;51.638;5.784;2023-01-16T00:18:32;99486.25;;;9.55;57.55
48848;BME280;36611;51.638;5.784;2023-01-16T00:20:59;99480.03;;;9.54;57.83
48848;BME280;36611;51.638;5.784;2023-01-16T00:23:25;99483.00;;;9.51;57.62
48848;BME280;36611;51.638;5.784;2023-01-16T00:25:52;99473.41;;;9.49;57.79
48848;BME280;36611;51.638;5.784;2023-01-16T00:28:19;99473.53;;;9.47;57.95
48848;BME280;36611;51.638;5.784;2023-01-16T00:30:46;99476.22;;;9.47;58.11
48848;BME280;36611;51.638;5.784;2023-01-16T00:33:12;99475.38;;;9.47;57.88
48848;BME280;36611;51.638;5.784;2023-01-16T00:35:39;99463.78;;;9.46;58.02
48848;BME280;36611;51.638;5.784;2023-01-16T00:38:06;99465.75;;;9.44;57.83
48848;BME280;36611;51.638;5.784;2023-01-16T00:40:32;99466.75;;;9.43;58.05
48848;BME280;36611;51.638;5.784;2023-01-16T00:42:59;99463.34;;;9.41;58.00
48848;BME280;36611;51.638;5.784;2023-01-16T00:45:25;99460.69;;;9.41;58.04
48848;BME280;36611;51.638;5.784;2023-01-16T00:47:52;99452.63;;;9.41;57.92
48848;BME280;36611;51.638;5.784;2023-01-16T00:50:19;99453.47;;;9.42;57.96
48848;BME280;36611;51.638;5.784;2023-01-16T00:52:45;99459.84;;;9.41;58.00
48848;BME280;36611;51.638;5.784;2023-01-16T00:55:12;99453.63;;;9.40;58.14
48848;BME280;36611;51.638;5.784;2023-01-16T00:57:38;99441.78;;;9.43;58.00
48848;BME280;36611;51.638;5.784;2023-01-16T01:00:05;99447.00;;;9.44;57.88
48848;BME280;36611;51.638;5.784;2023-01-16T01:02:32;99431.91;;;9.43;57.85
48848;BME280;36611;51.638;5.784;2023-01-16T01:04:59;99424.00;;;9.42;57.93
48848;BME280;36611;51.638;5.784;2023-01-16T01:07:25;99434.59;;;9.43;57.96
48848;BME280;36611;51.638;5.784;2023-01-16T01:09:52;99424.00;;;9.42;57.69
48848;BME280;36611;51.638;5.784;2023-01-16T01:12:18;99422.44;;;9.39;57.59
48848;BME280;36611;51.638;5.784;2023-01-16T01:14:45;99416.38;;;9.37;57.52
48848;BME280;36611;51.638;5.784;2023-01-16T01:17:12;99413.84;;;9.36;57.68
48848;BME280;36611;51.638;5.784;2023-01-16T01:19:38;99410.44;;;9.34;57.63
48848;BME280;36611;51.638;5.784;2023-01-16T01:22:05;99412.56;;;9.30;57.48
48848;BME280;36611;51.638;5.784;2023-01-16T01:24:32;99403.22;;;9.24;57.52
48848;BME280;36611;51.638;5.784;2023-01-16T01:26:58;99401.53;;;9.23;57.64
48848;BME280;36611;51.638;5.784;2023-01-16T01:29:25;99403.38;;;9.23;57.61
48848;BME280;36611;51.638;5.784;2023-01-16T01:31:51;99396.31;;;9.22;57.46
48848;BME280;36611;51.638;5.784;2023-01-16T01:34:18;99388.53;;;9.19;57.58
48848;BME280;36611;51.638;5.784;2023-01-16T01:36:44;99383.31;;;9.17;57.39
48848;BME280;36611;51.638;5.784;2023-01-16T01:39:11;99375.69;;;9.13;57.46
48848;BME280;36611;51.638;5.784;2023-01-16T01:41:38;99367.63;;;9.03;57.23
48848;BME280;36611;51.638;5.784;2023-01-16T01:47:08;99356.53;;;8.87;57.29
48848;BME280;36611;51.638;5.784;2023-01-16T01:49:36;99349.19;;;8.79;57.21
48848;BME280;36611;51.638;5.784;2023-01-16T01:52:05;99349.84;;;8.72;57.25
48848;BME280;36611;51.638;5.784;2023-01-16T01:54:37;99347.72;;;8.66;57.35
48848;BME280;36611;51.638;5.784;2023-01-16T01:57:17;99342.91;;;8.59;57.29
48848;BME280;36611;51.638;5.784;2023-01-16T01:59:49;99330.91;;;8.54;57.41
48848;BME280;36611;51.638;5.784;2023-01-16T02:02:20;99325.09;;;8.49;57.50
48848;BME280;36611;51.638;5.784;2023-01-16T02:04:51;99327.47;;;8.42;57.46
48848;BME280;36611;51.638;5.784;2023-01-16T02:07:24;99320.09;;;8.35;57.33
48848;BME280;36611;51.638;5.784;2023-01-16T02:10:29;99305.53;;;8.27;57.44
48848;BME280;36611;51.638;5.784;2023-01-16T02:12:57;99301.16;;;8.26;57.58
48848;BME280;36611;51.638;5.784;2023-01-16T02:15:24;99296.91;;;8.24;57.59
48848;BME280;36611;51.638;5.784;2023-01-16T02:17:51;99293.53;;;8.22;57.67
48848;BME280;36611;51.638;5.784;2023-01-16T02:29:25;99267.63;;;8.22;57.64
48848;BME280;36611;51.638;5.784;2023-01-16T02:37:48;99246.63;;;7.97;57.33
48848;BME280;36611;51.638;5.784;2023-01-16T02:40:51;99239.13;;;7.91;57.63
48848;BME280;36611;51.638;5.784;2023-01-16T02:43:32;99230.53;;;7.87;57.49
48848;BME280;36611;51.638;5.784;2023-01-16T02:49:01;99222.78;;;7.84;57.62
48848;BME280;36611;51.638;5.784;2023-01-16T02:53:57;99202.13;;;7.86;57.78
48848;BME280;36611;51.638;5.784;2023-01-16T02:56:39;99200.88;;;7.90;57.92
48848;BME280;36611;51.638;5.784;2023-01-16T02:59:10;99187.25;;;7.93;57.74
48848;BME280;36611;51.638;5.784;2023-01-16T03:01:37;99184.44;;;7.95;57.86
48848;BME280;36611;51.638;5.784;2023-01-16T03:15:12;99140.94;;;7.62;57.72
48848;BME280;36611;51.638;5.784;2023-01-16T03:25:50;99127.84;;;7.39;58.02
48848;BME280;36611;51.638;5.784;2023-01-16T03:30:54;99116.81;;;7.32;57.92
48848;BME280;36611;51.638;5.784;2023-01-16T03:33:34;99106.16;;;7.32;58.20
48848;BME280;36611;51.638;5.784;2023-01-16T03:36:21;99101.53;;;7.34;58.21
48848;BME280;36611;51.638;5.784;2023-01-16T03:38:51;99093.25;;;7.37;58.41
48848;BME280;36611;51.638;5.784;2023-01-16T03:41:21;99087.63;;;7.40;58.58
48848;BME280;36611;51.638;5.784;2023-01-16T03:43:54;99090.94;;;7.44;58.63
48848;BME280;36611;51.638;5.784;2023-01-16T03:46:28;99086.44;;;7.44;58.82
48848;BME280;36611;51.638;5.784;2023-01-16T03:49:03;99080.97;;;7.46;58.87
48848;BME280;36611;51.638;5.784;2023-01-16T03:51:38;99062.97;;;7.48;58.82
48848;BME280;36611;51.638;5.784;2023-01-16T03:56:52;99036.56;;;7.54;58.79
48848;BME280;36611;51.638;5.784;2023-01-16T03:59:20;99027.31;;;7.58;58.89
48848;BME280;36611;51.638;5.784;2023-01-16T04:01:53;99032.25;;;7.63;59.04
48848;BME280;36611;51.638;5.784;2023-01-16T04:04:27;99027.47;;;7.67;58.93
48848;BME280;36611;51.638;5.784;2023-01-16T04:07:03;99018.22;;;7.71;58.93
48848;BME280;36611;51.638;5.784;2023-01-16T04:12:07;98998.66;;;7.70;59.00
48848;BME280;36611;51.638;5.784;2023-01-16T04:14:36;98989.81;;;7.70;59.05
48848;BME280;36611;51.638;5.784;2023-01-16T04:17:04;98980.09;;;7.69;59.10
48848;BME280;36611;51.638;5.784;2023-01-16T04:19:32;98972.09;;;7.69;59.18
48848;BME280;36611;51.638;5.784;2023-01-16T04:22:05;98961.25;;;7.70;59.08
48848;BME280;36611;51.638;5.784;2023-01-16T04:24:33;98959.44;;;7.71;59.27
48848;BME280;36611;51.638;5.784;2023-01-16T04:27:00;98944.97;;;7.73;59.28
48848;BME280;36611;51.638;5.784;2023-01-16T04:29:26;98941.16;;;7.76;59.32
48848;BME280;36611;51.638;5.784;2023-01-16T04:31:53;98933.72;;;7.79;59.21
48848;BME280;36611;51.638;5.784;2023-01-16T04:34:19;98931.75;;;7.81;59.20
48848;BME280;36611;51.638;5.784;2023-01-16T04:36:46;98921.91;;;7.82;59.17
48848;BME280;36611;51.638;5.784;2023-01-16T04:39:12;98916.56;;;7.82;59.22
48848;BME280;36611;51.638;5.784;2023-01-16T04:41:39;98905.03;;;7.81;59.18
48848;BME280;36611;51.638;5.784;2023-01-16T04:44:08;98889.00;;;7.81;59.10
48848;BME280;36611;51.638;5.784;2023-01-16T04:46:35;98885.34;;;7.82;59.20
48848;BME280;36611;51.638;5.784;2023-01-16T04:49:05;98873.66;;;7.83;59.33
48848;BME280;36611;51.638;5.784;2023-01-16T04:51:32;98860.31;;;7.83;59.42
48848;BME280;36611;51.638;5.784;2023-01-16T04:53:59;98853.97;;;7.84;59.26
48848;BME280;36611;51.638;5.784;2023-01-16T04:56:26;98846.81;;;7.85;59.22
48848;BME280;36611;51.638;5.784;2023-01-16T04:58:52;98835.13;;;7.86;59.37
48848;BME280;36611;51.638;5.784;2023-01-16T05:01:20;98835.00;;;7.87;59.30
48848;BME280;36611;51.638;5.784;2023-01-16T05:03:47;98825.84;;;7.90;59.50
48848;BME280;36611;51.638;5.784;2023-01-16T05:06:13;98823.88;;;7.92;59.50
48848;BME280;36611;51.638;5.784;2023-01-16T05:08:40;98815.56;;;7.95;59.74
48848;BME280;36611;51.638;5.784;2023-01-16T05:11:07;98804.03;;;7.94;59.42
48848;BME280;36611;51.638;5.784;2023-01-16T05:13:33;98794.03;;;7.96;59.54
48848;BME280;36611;51.638;5.784;2023-01-16T05:16:00;98793.91;;;7.98;59.56
48848;BME280;36611;51.638;5.784;2023-01-16T05:18:27;98775.06;;;8.00;59.40
48848;BME280;36611;51.638;5.784;2023-01-16T05:20:53;98767.72;;;8.02;59.57
48848;BME280;36611;51.638;5.784;2023-01-16T05:23:20;98767.59;;;8.03;59.48
48848;BME280;36611;51.638;5.784;2023-01-16T05:25:47;98754.91;;;8.05;59.76
48848;BME280;36611;51.638;5.784;2023-01-16T05:28:14;98749.28;;;8.08;59.59
48848;BME280;36611;51.638;5.784;2023-01-16T05:30:41;98727.75;;;8.10;59.63
48848;BME280;36611;51.638;5.784;2023-01-16T05:33:07;98724.94;;;8.11;59.61
48848;BME280;36611;51.638;5.784;2023-01-16T05:35:34;98722.13;;;8.13;59.63
48848;BME280;36611;51.638;5.784;2023-01-16T05:38:01;98714.78;;;8.15;59.73
48848;BME280;36611;51.638;5.784;2023-01-16T05:40:27;98708.31;;;8.17;59.66
48848;BME280;36611;51.638;5.784;2023-01-16T05:42:54;98698.34;;;8.19;59.50
48848;BME280;36611;51.638;5.784;2023-01-16T05:45:20;98689.03;;;8.23;59.72
48848;BME280;36611;51.638;5.784;2023-01-16T05:47:47;98679.88;;;8.26;59.89
48848;BME280;36611;51.638;5.784;2023-01-16T05:50:14;98677.06;;;8.27;59.63
48848;BME280;36611;51.638;5.784;2023-01-16T05:52:41;98671.56;;;8.29;59.84
48848;BME280;36611;51.638;5.784;2023-01-16T05:55:07;98663.41;;;8.31;59.78
48848;BME280;36611;51.638;5.784;2023-01-16T05:57:34;98654.38;;;8.32;59.84
48848;BME280;36611;51.638;5.784;2023-01-16T06:00:01;98644.69;;;8.31;59.82
48848;BME280;36611;51.638;5.784;2023-01-16T06:02:30;98628.47;;;8.32;59.72
48848;BME280;36611;51.638;5.784;2023-01-16T06:04:56;98622.16;;;8.33;59.83
48848;BME280;36611;51.638;5.784;2023-01-16T06:07:23;98604.16;;;8.35;59.76
48848;BME280;36611;51.638;5.784;2023-01-16T06:09:49;98592.47;;;8.36;59.85
48848;BME280;36611;51.638;5.784;2023-01-16T06:12:17;98584.28;;;8.38;59.78
48848;BME280;36611;51.638;5.784;2023-01-16T06:14:45;98578.94;;;8.38;59.63
48848;BME280;36611;51.638;5.784;2023-01-16T06:17:14;98575.28;;;8.39;59.66
48848;BME280;36611;51.638;5.784;2023-01-16T06:19:43;98576.94;;;8.40;59.79
48848;BME280;36611;51.638;5.784;2023-01-16T06:22:13;98565.25;;;8.41;59.73
48848;BME280;36611;51.638;5.784;2023-01-16T06:24:40;98559.91;;;8.41;59.70
48848;BME280;36611;51.638;5.784;2023-01-16T06:27:07;98562.44;;;8.42;59.51
48848;BME280;36611;51.638;5.784;2023-01-16T06:29:33;98560.59;;;8.43;59.49
48848;BME280;36611;51.638;5.784;2023-01-16T06:32:00;98562.28;;;8.44;59.56
48848;BME280;36611;51.638;5.784;2023-01-16T06:34:26;98561.28;;;8.45;59.62
48848;BME280;36611;51.638;5.784;2023-01-16T06:36:53;98566.63;;;8.45;59.44
48848;BME280;36611;51.638;5.784;2023-01-16T06:39:20;98557.63;;;8.46;59.73
48848;BME280;36611;51.638;5.784;2023-01-16T06:41:46;98561.13;;;8.46;59.50
48848;BME280;36611;51.638;5.784;2023-01-16T06:44:13;98542.41;;;8.46;59.45
48848;BME280;36611;51.638;5.784;2023-01-16T06:46:39;98539.75;;;8.46;59.63
48848;BME280;36611;51.638;5.784;2023-01-16T06:49:10;98536.06;;;8.47;59.68
48848;BME280;36611;51.638;5.784;2023-01-16T06:51:37;98535.22;;;8.47;59.78
48848;BME280;36611;51.638;5.784;2023-01-16T06:54:03;98521.84;;;8.47;59.81
48848;BME280;36611;51.638;5.784;2023-01-16T06:56:30;98498.78;;;8.46;59.90
48848;BME280;36611;51.638;5.784;2023-01-16T06:58:57;98508.63;;;8.45;59.83
48848;BME280;36611;51.638;5.784;2023-01-16T07:01:23;98501.59;;;8.44;59.93
48848;BME280;36611;51.638;5.784;2023-01-16T07:03:50;98487.25;;;8.45;60.14
48848;BME280;36611;51.638;5.784;2023-01-16T07:06:17;98475.69;;;8.45;60.14
48848;BME280;36611;51.638;5.784;2023-01-16T07:08:44;98465.00;;;8.45;60.05
48848;BME280;36611;51.638;5.784;2023-01-16T07:11:12;98458.81;;;8.44;60.31
48848;BME280;36611;51.638;5.784;2023-01-16T07:13:38;98442.75;;;8.44;60.33
48848;BME280;36611;51.638;5.784;2023-01-16T07:16:05;98426.72;;;8.44;60.32
48848;BME280;36611;51.638;5.784;2023-01-16T07:18:50;98413.19;;;8.46;60.33
48848;BME280;36611;51.638;5.784;2023-01-16T07:21:36;98401.50;;;8.47;60.42
48848;BME280;36611;51.638;5.784;2023-01-16T07:24:24;98376.44;;;8.48;60.59
48848;BME280;36611;51.638;5.784;2023-01-16T07:27:00;98371.06;;;8.48;60.53
48848;BME280;36611;51.638;5.784;2023-01-16T07:29:30;98357.53;;;8.49;60.58
48848;BME280;36611;51.638;5.784;2023-01-16T07:32:00;98358.22;;;8.51;60.78
48848;BME280;36611;51.638;5.784;2023-01-16T07:34:28;98352.56;;;8.54;60.63
48848;BME280;36611;51.638;5.784;2023-01-16T07:36:55;98337.34;;;8.55;60.81
48848;BME280;36611;51.638;5.784;2023-01-16T07:39:21;98339.03;;;8.56;60.81
48848;BME280;36611;51.638;5.784;2023-01-16T07:41:48;98336.19;;;8.57;60.74
48848;BME280;36611;51.638;5.784;2023-01-16T07:44:23;98330.69;;;8.59;60.59
48848;BME280;36611;51.638;5.784;2023-01-16T07:46:49;98323.66;;;8.58;60.97
48848;BME280;36611;51.638;5.784;2023-01-16T07:49:16;98315.63;;;8.58;60.81
48848;BME280;36611;51.638;5.784;2023-01-16T07:51:42;98314.63;;;8.59;60.98
48848;BME280;36611;51.638;5.784;2023-01-16T07:54:09;98307.59;;;8.58;60.94
48848;BME280;36611;51.638;5.784;2023-01-16T07:56:36;98298.59;;;8.59;61.12
48848;BME280;36611;51.638;5.784;2023-01-16T07:59:02;98293.91;;;8.61;61.02
48848;BME280;36611;51.638;5.784;2023-01-16T08:01:29;98287.56;;;8.62;61.22
48848;BME280;36611;51.638;5.784;2023-01-16T08:03:56;98277.53;;;8.64;61.21
48848;BME280;36611;51.638;5.784;2023-01-16T08:06:22;98266.84;;;8.64;61.29
48848;BME280;36611;51.638;5.784;2023-01-16T08:08:50;98257.81;;;8.65;61.28
48848;BME280;36611;51.638;5.784;2023-01-16T08:11:17;98254.16;;;8.66;61.24
48848;BME280;36611;51.638;5.784;2023-01-16T08:14:06;98248.78;;;8.66;61.34
48848;BME280;36611;51.638;5.784;2023-01-16T08:16:33;98235.25;;;8.68;61.48
48848;BME280;36611;51.638;5.784;2023-01-16T08:19:00;98228.91;;;8.69;61.52
48848;BME280;36611;51.638;5.784;2023-01-16T08:21:26;98235.09;;;8.69;61.45
48848;BME280;36611;51.638;5.784;2023-01-16T08:23:55;98218.03;;;8.70;61.41
48848;BME280;36611;51.638;5.784;2023-01-16T08:26:21;98213.38;;;8.72;61.58
48848;BME280;36611;51.638;5.784;2023-01-16T08:28:48;98200.00;;;8.72;61.61
48848;BME280;36611;51.638;5.784;2023-01-16T08:31:16;98194.63;;;8.72;61.42
48848;BME280;36611;51.638;5.784;2023-01-16T08:33:44;98191.97;;;8.72;61.52
48848;BME280;36611;51.638;5.784;2023-01-16T08:36:13;98180.09;;;8.75;61.72
48848;BME280;36611;51.638;5.784;2023-01-16T08:38:43;98176.41;;;8.76;61.54
48848;BME280;36611;51.638;5.784;2023-01-16T08:41:09;98175.25;;;8.78;61.52
48848;BME280;36611;51.638;5.784;2023-01-16T08:43:56;98153.84;;;8.78;61.53
48848;BME280;36611;51.638;5.784;2023-01-16T08:46:42;98154.84;;;8.77;61.57
48848;BME280;36611;51.638;5.784;2023-01-16T08:49:28;98151.34;;;8.77;61.67
48848;BME280;36611;51.638;5.784;2023-01-16T08:52:13;98139.78;;;8.76;61.63
48848;BME280;36611;51.638;5.784;2023-01-16T08:54:40;98137.13;;;8.76;61.71
48848;BME280;36611;51.638;5.784;2023-01-16T08:57:06;98132.44;;;8.78;61.72
48848;BME280;36611;51.638;5.784;2023-01-16T08:59:33;98125.09;;;8.80;61.85
48848;BME280;36611;51.638;5.784;2023-01-16T09:02:01;98130.59;;;8.79;61.89
48848;BME280;36611;51.638;5.784;2023-01-16T09:04:28;98117.22;;;8.79;61.96
48848;BME280;36611;51.638;5.784;2023-01-16T09:06:55;98109.88;;;8.81;61.72
48848;BME280;36611;51.638;5.784;2023-01-16T09:09:21;98102.69;;;8.81;61.99
48848;BME280;36611;51.638;5.784;2023-01-16T09:11:56;98108.19;;;8.80;61.92
48848;BME280;36611;51.638;5.784;2023-01-16T09:14:42;98101.84;;;8.81;61.98
48848;BME280;36611;51.638;5.784;2023-01-16T09:17:08;98102.84;;;8.80;62.00
48848;BME280;36611;51.638;5.784;2023-01-16T09:19:35;98099.31;;;8.79;62.17
48848;BME280;36611;51.638;5.784;2023-01-16T09:22:03;98104.69;;;8.79;62.12
48848;BME280;36611;51.638;5.784;2023-01-16T09:24:33;98104.84;;;8.78;61.98
48848;BME280;36611;51.638;5.784;2023-01-16T09:27:01;98091.31;;;8.79;62.04
48848;BME280;36611;51.638;5.784;2023-01-16T09:29:29;98103.00;;;8.78;62.00
48848;BME280;36611;51.638;5.784;2023-01-16T09:31:56;98095.16;;;8.77;61.86
48848;BME280;36611;51.638;5.784;2023-01-16T09:34:23;98094.47;;;8.75;61.90
48848;BME280;36611;51.638;5.784;2023-01-16T09:36:49;98106.19;;;8.74;62.02
48848;BME280;36611;51.638;5.784;2023-01-16T09:39:16;98093.81;;;8.73;61.95
48848;BME280;36611;51.638;5.784;2023-01-16T09:41:54;98093.97;;;8.71;61.86
48848;BME280;36611;51.638;5.784;2023-01-16T09:44:41;98088.94;;;8.68;62.00
48848;BME280;36611;51.638;5.784;2023-01-16T09:47:11;98085.44;;;8.68;61.87
48848;BME280;36611;51.638;5.784;2023-01-16T09:49:51;98079.41;;;8.66;62.01
48848;BME280;36611;51.638;5.784;2023-01-16T09:52:25;98077.72;;;8.65;62.14
48848;BME280;36611;51.638;5.784;2023-01-16T09:55:19;98078.56;;;8.65;62.05
48848;BME280;36611;51.638;5.784;2023-01-16T09:58:13;98076.72;;;8.66;61.86
48848;BME280;36611;51.638;5.784;2023-01-16T10:03:35;98063.34;;;8.66;62.07
48848;BME280;36611;51.638;5.784;2023-01-16T10:06:23;98056.16;;;8.66;62.21
48848;BME280;36611;51.638;5.784;2023-01-16T10:09:02;98048.13;;;8.66;62.17
48848;BME280;36611;51.638;5.784;2023-01-16T10:11:50;98050.66;;;8.68;62.07
48848;BME280;36611;51.638;5.784;2023-01-16T10:14:49;98039.78;;;8.69;62.29
48848;BME280;36611;51.638;5.784;2023-01-16T10:25:24;98022.06;;;8.76;62.27
48848;BME280;36611;51.638;5.784;2023-01-16T10:31:05;98007.34;;;8.80;62.38
48848;BME280;36611;51.638;5.784;2023-01-16T10:34:01;98000.81;;;8.83;62.42
48848;BME280;36611;51.638;5.784;2023-01-16T10:36:30;97996.13;;;8.85;62.40
48848;BME280;36611;51.638;5.784;2023-01-16T10:38:59;97994.97;;;8.87;62.36
48848;BME280;36611;51.638;5.784;2023-01-16T10:41:34;97996.31;;;8.91;62.23
48848;BME280;36611;51.638;5.784;2023-01-16T10:44:33;97986.31;;;8.94;62.24
48848;BME280;36611;51.638;5.784;2023-01-16T10:47:23;97981.63;;;8.96;62.23
48848;BME280;36611;51.638;5.784;2023-01-16T10:50:09;97978.59;;;8.99;62.50
48848;BME280;36611;51.638;5.784;2023-01-16T10:52:37;97965.72;;;9.02;62.47
48848;BME280;36611;51.638;5.784;2023-01-16T10:55:05;97958.34;;;9.04;62.46
48848;BME280;36611;51.638;5.784;2023-01-16T10:57:32;97954.16;;;9.10;62.33
48848;BME280;36611;51.638;5.784;2023-01-16T11:00:04;97947.78;;;9.11;62.42
48848;BME280;36611;51.638;5.784;2023-01-16T11:02:41;97948.28;;;9.14;62.44
48848;BME280;36611;51.638;5.784;2023-01-16T11:05:25;97934.56;;;9.17;62.36
48848;BME280;36611;51.638;5.784;2023-01-16T11:07:53;97932.38;;;9.21;62.35
48848;BME280;36611;51.638;5.784;2023-01-16T11:10:22;97927.69;;;9.23;62.27
48848;BME280;36611;51.638;5.784;2023-01-16T11:12:49;97927.16;;;9.28;62.43
48848;BME280;36611;51.638;5.784;2023-01-16T11:15:36;97922.31;;;9.31;62.14
48848;BME280;36611;51.638;5.784;2023-01-16T11:18:31;97898.19;;;9.31;62.14
48848;BME280;36611;51.638;5.784;2023-01-16T11:23:43;97895.34;;;9.33;62.11
48848;BME280;36611;51.638;5.784;2023-01-16T11:26:11;97883.81;;;9.32;62.11
48848;BME280;36611;51.638;5.784;2023-01-16T11:28:38;97880.13;;;9.33;62.16
48848;BME280;36611;51.638;5.784;2023-01-16T11:31:13;97871.91;;;9.35;61.74
48848;BME280;36611;51.638;5.784;2023-01-16T11:33:44;97873.75;;;9.34;61.79
48848;BME280;36611;51.638;5.784;2023-01-16T11:36:16;97862.88;;;9.36;61.66
48848;BME280;36611;51.638;5.784;2023-01-16T11:38:45;97852.97;;;9.36;61.76
48848;BME280;36611;51.638;5.784;2023-01-16T11:41:17;97855.66;;;9.36;61.55
48848;BME280;36611;51.638;5.784;2023-01-16T11:43:54;97850.78;;;9.40;61.64
48848;BME280;36611;51.638;5.784;2023-01-16T11:46:49;97837.03;;;9.43;61.48
48848;BME280;36611;51.638;5.784;2023-01-16T11:49:24;97833.19;;;9.45;61.74
48848;BME280;36611;51.638;5.784;2023-01-16T11:51:53;97828.31;;;9.49;61.86
48848;BME280;36611;51.638;5.784;2023-01-16T11:54:26;97826.47;;;9.49;61.49
48848;BME280;36611;51.638;5.784;2023-01-16T12:33:49;97739.22;;;9.78;61.16
48848;BME280;36611;51.638;5.784;2023-01-16T12:36:34;97739.88;;;9.80;60.79
48848;BME280;36611;51.638;5.784;2023-01-16T12:50:49;97705.63;;;9.90;60.72
48848;BME280;36611;51.638;5.784;2023-01-16T12:58:53;97701.09;;;9.91;60.51
48848;BME280;36611;51.638;5.784;2023-01-16T13:01:35;97698.41;;;9.91;60.49
48848;BME280;36611;51.638;5.784;2023-01-16T13:04:17;97689.34;;;9.92;60.59
48848;BME280;36611;51.638;5.784;2023-01-16T13:06:50;97685.19;;;9.89;60.71
48848;BME280;36611;51.638;5.784;2023-01-16T13:12:03;97682.50;;;9.89;60.53
48848;BME280;36611;51.638;5.784;2023-01-16T13:14:54;97678.16;;;9.88;60.60
48848;BME280;36611;51.638;5.784;2023-01-16T13:17:25;97671.50;;;9.84;60.72
48848;BME280;36611;51.638;5.784;2023-01-16T13:19:59;97670.84;;;9.82;60.66
48848;BME280;36611;51.638;5.784;2023-01-16T13:22:34;97666.50;;;9.81;60.90
48848;BME280;36611;51.638;5.784;2023-01-16T13:25:09;97664.66;;;9.81;60.89
48848;BME280;36611;51.638;5.784;2023-01-16T13:27:44;97671.03;;;9.80;60.77
48848;BME280;36611;51.638;5.784;2023-01-16T13:30:15;97674.38;;;9.82;60.94
48848;BME280;36611;51.638;5.784;2023-01-16T13:32:54;97661.16;;;9.81;60.87
48848;BME280;36611;51.638;5.784;2023-01-16T13:36:08;97655.97;;;9.79;60.82
48848;BME280;36611;51.638;5.784;2023-01-16T13:42:06;97656.16;;;9.78;60.92
48848;BME280;36611;51.638;5.784;2023-01-16T13:44:30;97657.81;;;9.79;60.98
48848;BME280;36611;51.638;5.784;2023-01-16T13:47:22;97659.84;;;9.77;61.07
48848;BME280;36611;51.638;5.784;2023-01-16T13:50:01;97651.16;;;9.75;61.24
48848;BME280;36611;51.638;5.784;2023-01-16T13:52:28;97648.09;;;9.78;61.16
48848;BME280;36611;51.638;5.784;2023-01-16T13:54:57;97640.06;;;9.78;61.32
48848;BME280;36611;51.638;5.784;2023-01-16T13:57:26;97636.38;;;9.79;61.26
48848;BME280;36611;51.638;5.784;2023-01-16T14:00:02;97633.88;;;9.77;61.27
48848;BME280;36611;51.638;5.784;2023-01-16T14:11:14;97612.81;;;9.74;61.46
48848;BME280;36611;51.638;5.784;2023-01-16T14:13:42;97625.19;;;9.75;61.22
48848;BME280;36611;51.638;5.784;2023-01-16T14:16:26;97623.53;;;9.74;61.52
48848;BME280;36611;51.638;5.784;2023-01-16T14:21:43;97618.53;;;9.71;61.40
48848;BME280;36611;51.638;5.784;2023-01-16T14:24:39;97618.53;;;9.71;61.43
48848;BME280;36611;51.638;5.784;2023-01-16T14:27:12;97619.34;;;9.72;61.79
48848;BME280;36611;51.638;5.784;2023-01-16T14:29:49;97615.00;;;9.71;61.68
48848;BME280;36611;51.638;5.784;2023-01-16T14:32:24;97617.69;;;9.71;61.75
48848;BME280;36611;51.638;5.784;2023-01-16T14:35:01;97610.84;;;9.68;61.66
48848;BME280;36611;51.638;5.784;2023-01-16T14:37:41;97614.69;;;9.66;61.79
48848;BME280;36611;51.638;5.784;2023-01-16T14:42:38;97608.69;;;9.64;61.86
48848;BME280;36611;51.638;5.784;2023-01-16T14:56:42;97602.03;;;9.60;62.28
48848;BME280;36611;51.638;5.784;2023-01-16T14:59:16;97599.34;;;9.60;62.44
48848;BME280;36611;51.638;5.784;2023-01-16T15:01:53;97599.00;;;9.63;62.47
48848;BME280;36611;51.638;5.784;2023-01-16T15:07:58;97598.16;;;9.62;62.26
48848;BME280;36611;51.638;5.784;2023-01-16T15:10:33;97598.16;;;9.62;62.05
48848;BME280;36611;51.638;5.784;2023-01-16T15:13:18;97586.41;;;9.63;62.43
48848;BME280;36611;51.638;5.784;2023-01-16T15:15:56;97590.59;;;9.66;62.55
48848;BME280;36611;51.638;5.784;2023-01-16T15:18:25;97588.91;;;9.65;62.42
48848;BME280;36611;51.638;5.784;2023-01-16T15:21:12;97587.06;;;9.65;62.45
48848;BME280;36611;51.638;5.784;2023-01-16T15:23:59;97593.44;;;9.64;62.40
48848;BME280;36611;51.638;5.784;2023-01-16T15:27:02;97593.25;;;9.66;62.39
48848;BME280;36611;51.638;5.784;2023-01-16T15:30:03;97597.28;;;9.70;62.53
48848;BME280;36611;51.638;5.784;2023-01-16T15:32:59;97591.72;;;9.71;62.54
48848;BME280;36611;51.638;5.784;2023-01-16T15:35:55;97583.50;;;9.73;62.40
48848;BME280;36611;51.638;5.784;2023-01-16T15:38:25;97597.09;;;9.71;62.11
48848;BME280;36611;51.638;5.784;2023-01-16T15:40:52;97589.06;;;9.71;62.34
48848;BME280;36611;51.638;5.784;2023-01-16T15:43:21;97588.03;;;9.72;62.26
48848;BME280;36611;51.638;5.784;2023-01-16T15:51:55;97579.44;;;9.77;62.25
48848;BME280;36611;51.638;5.784;2023-01-16T15:54:22;97584.63;;;9.78;62.15
48848;BME280;36611;51.638;5.784;2023-01-16T15:56:49;97582.59;;;9.80;62.11
48848;BME280;36611;51.638;5.784;2023-01-16T16:01:53;97586.56;;;9.84;62.09
48848;BME280;36611;51.638;5.784;2023-01-16T16:04:20;97581.03;;;9.86;61.99
48848;BME280;36611;51.638;5.784;2023-01-16T16:06:48;97591.19;;;9.91;61.76
48848;BME280;36611;51.638;5.784;2023-01-16T16:09:22;97593.69;;;9.92;62.01
48848;BME280;36611;51.638;5.784;2023-01-16T16:11:51;97592.66;;;9.93;61.95
48848;BME280;36611;51.638;5.784;2023-01-16T16:14:28;97601.38;;;9.95;61.75
48848;BME280;36611;51.638;5.784;2023-01-16T16:17:24;97601.19;;;9.97;61.88
48848;BME280;36611;51.638;5.784;2023-01-16T16:23:11;97602.09;;;10.04;61.50